sensor_id;sensor_type;location;lat;lon;timestamp;pressure;altitude;pressure_sealevel;temperature;humidity
66560;BME280;53413;49.878;8.142;2022-12-20T00:01:39;100460.41;;;1.49;100.00
66560;BME280;53413;49.878;8.142;2022-12-20T00:04:04;100461.25;;;1.43;100.00
66560;BME280;53413;49.878;8.142;2022-12-20T00:06:30;100450.94;;;1.46;100.00
66560;BME280;53413;49.878;8.142;2022-12-20T00:08:59;100458.66;;;1.45;100.00
66560;BME280;53413;49.878;8.142;2022-12-20T00:11:26;100456.09;;;1.45;100.00
66560;BME280;53413;49.878;8.142;2022-12-20T00:13:52;100455.22;;;1.44;100.00
66560;BME280;53413;49.878;8.142;2022-12-20T00:16:27;100456.91;;;1.39;100.00
66560;BME280;53413;49.878;8.142;2022-12-20T00:18:56;100457.81;;;1.44;100.00
66560;BME280;53413;49.878;8.142;2022-12-20T00:21:22;100460.41;;;1.43;100.00
66560;BME280;53413;49.878;8.142;2022-12-20T00:23:48;100463.84;;;1.43;100.00
66560;BME280;53413;49.878;8.142;2022-12-20T00:26:16;100456.97;;;1.47;100.00
66560;BME280;53413;49.878;8.142;2022-12-20T00:28:43;100455.25;;;1.50;100.00
66560;BME280;53413;49.878;8.142;2022-12-20T00:31:11;100449.25;;;1.50;100.00
66560;BME280;53413;49.878;8.142;2022-12-20T00:33:38;100447.50;;;1.47;100.00
66560;BME280;53413;49.878;8.142;2022-12-20T00:36:05;100427.69;;;1.42;100.00
66560;BME280;53413;49.878;8.142;2022-12-20T00:38:31;100435.41;;;1.37;100.00
66560;BME280;53413;49.878;8.142;2022-12-20T00:41:05;100437.03;;;1.29;100.00
66560;BME280;53413;49.878;8.142;2022-12-20T00:43:33;100431.00;;;1.25;100.00
66560;BME280;53413;49.878;8.142;2022-12-20T00:45:59;100421.56;;;1.27;100.00
66560;BME280;53413;49.878;8.142;2022-12-20T00:48:25;100428.47;;;1.33;100.00
66560;BME280;53413;49.878;8.142;2022-12-20T00:50:51;100437.94;;;1.35;100.00
66560;BME280;53413;49.878;8.142;2022-12-20T00:53:17;100435.41;;;1.37;100.00
66560;BME280;53413;49.878;8.142;2022-12-20T00:55:44;100439.72;;;1.46;100.00
66560;BME280;53413;49.878;8.142;2022-12-20T00:58:10;100428.56;;;1.51;100.00
66560;BME280;53413;49.878;8.142;2022-12-20T01:00:37;100426.84;;;1.50;100.00
66560;BME280;53413;49.878;8.142;2022-12-20T01:03:03;100432.00;;;1.50;100.00
66560;BME280;53413;49.878;8.142;2022-12-20T01:05:29;100423.38;;;1.45;100.00
66560;BME280;53413;49.878;8.142;2022-12-20T01:07:55;100425.97;;;1.44;100.00
66560;BME280;53413;49.878;8.142;2022-12-20T01:10:20;100432.00;;;1.50;100.00
66560;BME280;53413;49.878;8.142;2022-12-20T01:12:46;100435.50;;;1.54;100.00
66560;BME280;53413;49.878;8.142;2022-12-20T01:15:11;100424.28;;;1.53;100.00
66560;BME280;53413;49.878;8.142;2022-12-20T01:17:37;100431.22;;;1.61;100.00
66560;BME280;53413;49.878;8.142;2022-12-20T01:20:04;100435.53;;;1.65;100.00
66560;BME280;53413;49.878;8.142;2022-12-20T01:22:29;100438.16;;;1.71;100.00
66560;BME280;53413;49.878;8.142;2022-12-20T01:24:55;100437.31;;;1.75;100.00
66560;BME280;53413;49.878;8.142;2022-12-20T01:27:20;100434.72;;;1.69;100.00
66560;BME280;53413;49.878;8.142;2022-12-20T01:29:46;100430.41;;;1.68;100.00
66560;BME280;53413;49.878;8.142;2022-12-20T01:32:11;100420.91;;;1.65;100.00
66560;BME280;53413;49.878;8.142;2022-12-20T01:34:37;100423.47;;;1.61;100.00
66560;BME280;53413;49.878;8.142;2022-12-20T01:37:02;100430.38;;;1.63;100.00
66560;BME280;53413;49.878;8.142;2022-12-20T01:39:28;100426.06;;;1.62;100.00
66560;BME280;53413;49.878;8.142;2022-12-20T01:41:53;100418.28;;;1.58;100.00
66560;BME280;53413;49.878;8.142;2022-12-20T01:46:46;100407.88;;;1.41;100.00
66560;BME280;53413;49.878;8.142;2022-12-20T01:49:41;100407.91;;;1.50;100.00
66560;BME280;53413;49.878;8.142;2022-12-20T01:52:12;100407.06;;;1.51;100.00
66560;BME280;53413;49.878;8.142;2022-12-20T01:54:51;100406.22;;;1.53;100.00
66560;BME280;53413;49.878;8.142;2022-12-20T01:57:53;100398.47;;;1.55;100.00
66560;BME280;53413;49.878;8.142;2022-12-20T02:00:20;100397.59;;;1.48;100.00
66560;BME280;53413;49.878;8.142;2022-12-20T02:02:47;100382.03;;;1.42;100.00
66560;BME280;53413;49.878;8.142;2022-12-20T02:05:14;100383.75;;;1.40;100.00
66560;BME280;53413;49.878;8.142;2022-12-20T02:07:41;100377.75;;;1.43;100.00
66560;BME280;53413;49.878;8.142;2022-12-20T02:10:10;100380.38;;;1.47;100.00
66560;BME280;53413;49.878;8.142;2022-12-20T02:12:39;100385.53;;;1.50;100.00
66560;BME280;53413;49.878;8.142;2022-12-20T02:25:59;100347.66;;;1.57;100.00
66560;BME280;53413;49.878;8.142;2022-12-20T02:31:29;100353.69;;;1.54;100.00
66560;BME280;53413;49.878;8.142;2022-12-20T02:33:56;100346.81;;;1.58;100.00
66560;BME280;53413;49.878;8.142;2022-12-20T02:36:22;100339.94;;;1.54;100.00
66560;BME280;53413;49.878;8.142;2022-12-20T02:38:50;100333.03;;;1.48;100.00
66560;BME280;53413;49.878;8.142;2022-12-20T02:41:25;100332.13;;;1.43;100.00
66560;BME280;53413;49.878;8.142;2022-12-20T02:44:02;100327.81;;;1.37;100.00
66560;BME280;53413;49.878;8.142;2022-12-20T02:46:49;100329.53;;;1.43;100.00
66560;BME280;53413;49.878;8.142;2022-12-20T02:49:19;100333.88;;;1.53;100.00
66560;BME280;53413;49.878;8.142;2022-12-20T02:51:47;100329.63;;;1.59;100.00
66560;BME280;53413;49.878;8.142;2022-12-20T02:54:14;100333.06;;;1.62;100.00
66560;BME280;53413;49.878;8.142;2022-12-20T02:59:30;100327.88;;;1.54;100.00
66560;BME280;53413;49.878;8.142;2022-12-20T03:01:56;100328.75;;;1.61;100.00
66560;BME280;53413;49.878;8.142;2022-12-20T03:04:27;100342.56;;;1.68;100.00
66560;BME280;53413;49.878;8.142;2022-12-20T03:06:57;100340.00;;;1.74;100.00
66560;BME280;53413;49.878;8.142;2022-12-20T03:09:23;100337.41;;;1.77;100.00
66560;BME280;53413;49.878;8.142;2022-12-20T03:11:49;100334.84;;;1.74;100.00
66560;BME280;53413;49.878;8.142;2022-12-20T03:14:14;100335.66;;;1.64;100.00
66560;BME280;53413;49.878;8.142;2022-12-20T03:16:40;100331.38;;;1.67;100.00
66560;BME280;53413;49.878;8.142;2022-12-20T03:19:05;100327.06;;;1.71;100.00
66560;BME280;53413;49.878;8.142;2022-12-20T03:21:30;100324.50;;;1.74;100.00
66560;BME280;53413;49.878;8.142;2022-12-20T03:23:56;100322.78;;;1.78;100.00
66560;BME280;53413;49.878;8.142;2022-12-20T03:26:21;100323.63;;;1.78;100.00
66560;BME280;53413;49.878;8.142;2022-12-20T03:28:46;100317.59;;;1.75;100.00
66560;BME280;53413;49.878;8.142;2022-12-20T03:31:12;100308.13;;;1.72;100.00
66560;BME280;53413;49.878;8.142;2022-12-20T03:33:37;100307.25;;;1.76;100.00
66560;BME280;53413;49.878;8.142;2022-12-20T03:36:02;100302.09;;;1.72;100.00
66560;BME280;53413;49.878;8.142;2022-12-20T03:38:28;100290.91;;;1.77;100.00
66560;BME280;53413;49.878;8.142;2022-12-20T03:40:53;100282.31;;;1.78;100.00
66560;BME280;53413;49.878;8.142;2022-12-20T03:43:18;100303.84;;;1.76;100.00
66560;BME280;53413;49.878;8.142;2022-12-20T03:45:44;100308.13;;;1.78;100.00
66560;BME280;53413;49.878;8.142;2022-12-20T03:48:09;100323.63;;;1.78;100.00
66560;BME280;53413;49.878;8.142;2022-12-20T03:50:35;100329.66;;;1.73;100.00
66560;BME280;53413;49.878;8.142;2022-12-20T03:53:01;100310.72;;;1.67;100.00
66560;BME280;53413;49.878;8.142;2022-12-20T03:55:27;100314.13;;;1.63;100.00
66560;BME280;53413;49.878;8.142;2022-12-20T03:57:52;100323.63;;;1.69;100.00
66560;BME280;53413;49.878;8.142;2022-12-20T04:00:18;100322.75;;;1.72;100.00
66560;BME280;53413;49.878;8.142;2022-12-20T04:02:44;100329.63;;;1.69;100.00
66560;BME280;53413;49.878;8.142;2022-12-20T04:05:10;100327.03;;;1.65;100.00
66560;BME280;53413;49.878;8.142;2022-12-20T04:07:35;100321.88;;;1.62;100.00
66560;BME280;53413;49.878;8.142;2022-12-20T04:10:01;100321.88;;;1.65;100.00
66560;BME280;53413;49.878;8.142;2022-12-20T04:12:26;100315.84;;;1.66;100.00
66560;BME280;53413;49.878;8.142;2022-12-20T04:14:51;100317.59;;;1.67;100.00
66560;BME280;53413;49.878;8.142;2022-12-20T04:17:17;100312.41;;;1.68;100.00
66560;BME280;53413;49.878;8.142;2022-12-20T04:19:42;100313.28;;;1.66;100.00
66560;BME280;53413;49.878;8.142;2022-12-20T04:22:07;100299.50;;;1.67;100.00
66560;BME280;53413;49.878;8.142;2022-12-20T04:24:33;100290.91;;;1.71;100.00
66560;BME280;53413;49.878;8.142;2022-12-20T04:26:58;100283.13;;;1.69;100.00
66560;BME280;53413;49.878;8.142;2022-12-20T04:29:23;100278.00;;;1.71;100.00
66560;BME280;53413;49.878;8.142;2022-12-20T04:31:49;100269.38;;;1.74;100.00
66560;BME280;53413;49.878;8.142;2022-12-20T04:34:14;100274.53;;;1.67;100.00
66560;BME280;53413;49.878;8.142;2022-12-20T04:36:39;100274.50;;;1.63;100.00
66560;BME280;53413;49.878;8.142;2022-12-20T04:39:05;100275.38;;;1.65;100.00
66560;BME280;53413;49.878;8.142;2022-12-20T04:41:30;100283.16;;;1.73;100.00
66560;BME280;53413;49.878;8.142;2022-12-20T04:43:57;100284.88;;;1.78;100.00
66560;BME280;53413;49.878;8.142;2022-12-20T04:46:23;100287.47;;;1.81;100.00
66560;BME280;53413;49.878;8.142;2022-12-20T04:48:49;100278.88;;;1.78;100.00
66560;BME280;53413;49.878;8.142;2022-12-20T04:51:15;100281.44;;;1.75;100.00
66560;BME280;53413;49.878;8.142;2022-12-20T04:53:41;100274.53;;;1.78;100.00
66560;BME280;53413;49.878;8.142;2022-12-20T04:56:20;100274.56;;;1.83;100.00
66560;BME280;53413;49.878;8.142;2022-12-20T04:58:47;100275.41;;;1.80;100.00
66560;BME280;53413;49.878;8.142;2022-12-20T05:01:13;100270.25;;;1.80;100.00
66560;BME280;53413;49.878;8.142;2022-12-20T05:03:38;100263.34;;;1.73;100.00
66560;BME280;53413;49.878;8.142;2022-12-20T05:06:05;100268.50;;;1.72;100.00
66560;BME280;53413;49.878;8.142;2022-12-20T05:08:30;100268.50;;;1.70;100.00
66560;BME280;53413;49.878;8.142;2022-12-20T05:10:55;100263.31;;;1.68;100.00
66560;BME280;53413;49.878;8.142;2022-12-20T05:13:21;100265.06;;;1.68;100.00
66560;BME280;53413;49.878;8.142;2022-12-20T05:15:50;100276.28;;;1.73;100.00
66560;BME280;53413;49.878;8.142;2022-12-20T05:18:16;100273.69;;;1.78;100.00
66560;BME280;53413;49.878;8.142;2022-12-20T05:20:41;100261.66;;;1.81;100.00
66560;BME280;53413;49.878;8.142;2022-12-20T05:23:08;100264.22;;;1.83;100.00
66560;BME280;53413;49.878;8.142;2022-12-20T05:25:52;100263.34;;;1.76;100.00
66560;BME280;53413;49.878;8.142;2022-12-20T05:28:36;100267.63;;;1.69;100.00
66560;BME280;53413;49.878;8.142;2022-12-20T05:31:02;100260.75;;;1.65;100.00
66560;BME280;53413;49.878;8.142;2022-12-20T08:59:20;100161.72;;;1.90;100.00
66560;BME280;53413;49.878;8.142;2022-12-20T09:01:46;100165.16;;;2.07;100.00
66560;BME280;53413;49.878;8.142;2022-12-20T09:04:11;100168.59;;;2.25;100.00
66560;BME280;53413;49.878;8.142;2022-12-20T09:06:37;100172.00;;;2.36;100.00
66560;BME280;53413;49.878;8.142;2022-12-20T09:09:03;100174.59;;;2.47;100.00
66560;BME280;53413;49.878;8.142;2022-12-20T09:11:29;100161.59;;;2.67;100.00
66560;BME280;53413;49.878;8.142;2022-12-20T09:13:56;100177.94;;;2.83;100.00
66560;BME280;53413;49.878;8.142;2022-12-20T09:16:26;100169.28;;;2.92;100.00
66560;BME280;53413;49.878;8.142;2022-12-20T09:18:54;100163.13;;;3.12;100.00
66560;BME280;53413;49.878;8.142;2022-12-20T09:21:20;100169.13;;;3.18;100.00
66560;BME280;53413;49.878;8.142;2022-12-20T09:23:48;100164.72;;;3.31;100.00
66560;BME280;53413;49.878;8.142;2022-12-20T09:26:14;100160.41;;;3.36;100.00
66560;BME280;53413;49.878;8.142;2022-12-20T09:28:41;100157.81;;;3.33;100.00
66560;BME280;53413;49.878;8.142;2022-12-20T09:33:46;100154.28;;;3.47;100.00
66560;BME280;53413;49.878;8.142;2022-12-20T09:36:14;100148.22;;;3.54;100.00
66560;BME280;53413;49.878;8.142;2022-12-20T09:38:41;100150.72;;;3.66;100.00
66560;BME280;53413;49.878;8.142;2022-12-20T09:41:14;100137.66;;;3.74;100.00
66560;BME280;53413;49.878;8.142;2022-12-20T09:43:43;100139.38;;;3.78;100.00
66560;BME280;53413;49.878;8.142;2022-12-20T09:46:13;100143.59;;;3.90;100.00
66560;BME280;53413;49.878;8.142;2022-12-20T09:48:40;100134.06;;;3.94;100.00
66560;BME280;53413;49.878;8.142;2022-12-20T09:55:48;100134.88;;;4.00;100.00
66560;BME280;53413;49.878;8.142;2022-12-20T09:58:17;100133.13;;;3.99;100.00
66560;BME280;53413;49.878;8.142;2022-12-20T10:00:48;100131.41;;;3.98;100.00
66560;BME280;53413;49.878;8.142;2022-12-20T10:03:30;100123.59;;;4.03;100.00
66560;BME280;53413;49.878;8.142;2022-12-20T10:06:09;100127.94;;;4.03;100.00
66560;BME280;53413;49.878;8.142;2022-12-20T10:08:44;100124.38;;;4.13;100.00
66560;BME280;53413;49.878;8.142;2022-12-20T10:11:35;100122.47;;;4.27;100.00
66560;BME280;53413;49.878;8.142;2022-12-20T10:17:16;100119.75;;;4.41;100.00
66560;BME280;53413;49.878;8.142;2022-12-20T10:23:06;100120.81;;;4.22;100.00
66560;BME280;53413;49.878;8.142;2022-12-20T10:25:34;100126.91;;;4.16;100.00
66560;BME280;53413;49.878;8.142;2022-12-20T10:28:01;100130.31;;;4.23;100.00
66560;BME280;53413;49.878;8.142;2022-12-20T10:30:27;100129.34;;;4.33;100.00
66560;BME280;53413;49.878;8.142;2022-12-20T10:32:55;100120.47;;;4.51;100.00
66560;BME280;53413;49.878;8.142;2022-12-20T10:35:25;100116.06;;;4.61;100.00
66560;BME280;53413;49.878;8.142;2022-12-20T10:38:03;100119.41;;;4.71;100.00
66560;BME280;53413;49.878;8.142;2022-12-20T10:42:54;100114.06;;;4.82;100.00
66560;BME280;53413;49.878;8.142;2022-12-20T10:47:47;100119.25;;;4.82;100.00
66560;BME280;53413;49.878;8.142;2022-12-20T10:50:18;100110.66;;;4.80;100.00
66560;BME280;53413;49.878;8.142;2022-12-20T10:52:45;100103.84;;;4.69;100.00
66560;BME280;53413;49.878;8.142;2022-12-20T10:58:02;100086.91;;;5.06;100.00
66560;BME280;53413;49.878;8.142;2022-12-20T11:00:29;100073.56;;;5.31;100.00
66560;BME280;53413;49.878;8.142;2022-12-20T11:05:38;100076.81;;;5.44;100.00
66560;BME280;53413;49.878;8.142;2022-12-20T11:10:32;100074.81;;;5.60;100.00
66560;BME280;53413;49.878;8.142;2022-12-20T11:12:59;100074.56;;;5.75;100.00
66560;BME280;53413;49.878;8.142;2022-12-20T11:15:31;100072.00;;;5.74;100.00
66560;BME280;53413;49.878;8.142;2022-12-20T11:25:56;100042.25;;;5.89;100.00
66560;BME280;53413;49.878;8.142;2022-12-20T11:45:18;100004.91;;;5.44;100.00
66560;BME280;53413;49.878;8.142;2022-12-20T11:53:35;99997.03;;;5.96;100.00
66560;BME280;53413;49.878;8.142;2022-12-20T11:56:16;99995.25;;;6.01;100.00
66560;BME280;53413;49.878;8.142;2022-12-20T11:58:59;99988.56;;;5.86;100.00
66560;BME280;53413;49.878;8.142;2022-12-20T12:01:40;99999.06;;;5.81;100.00
66560;BME280;53413;49.878;8.142;2022-12-20T12:04:19;99992.00;;;5.86;100.00
66560;BME280;53413;49.878;8.142;2022-12-20T12:06:51;99981.78;;;5.77;100.00
66560;BME280;53413;49.878;8.142;2022-12-20T12:17:42;99985.50;;;5.64;100.00
66560;BME280;53413;49.878;8.142;2022-12-20T12:22:54;99980.75;;;5.39;100.00
66560;BME280;53413;49.878;8.142;2022-12-20T12:25:23;99979.81;;;5.43;100.00
66560;BME280;53413;49.878;8.142;2022-12-20T12:27:48;99978.81;;;5.50;100.00
66560;BME280;53413;49.878;8.142;2022-12-20T12:30:15;99984.03;;;5.49;100.00
66560;BME280;53413;49.878;8.142;2022-12-20T12:32:46;99970.00;;;5.59;100.00
66560;BME280;53413;49.878;8.142;2022-12-20T12:35:29;99958.63;;;5.65;100.00
66560;BME280;53413;49.878;8.142;2022-12-20T12:41:32;99935.53;;;5.93;100.00
66560;BME280;53413;49.878;8.142;2022-12-20T12:46:43;99928.03;;;6.23;100.00
66560;BME280;53413;49.878;8.142;2022-12-20T12:49:17;99907.38;;;6.55;100.00
66560;BME280;53413;49.878;8.142;2022-12-20T12:51:53;99903.06;;;6.90;100.00
66560;BME280;53413;49.878;8.142;2022-12-20T12:57:02;99905.00;;;7.16;100.00
66560;BME280;53413;49.878;8.142;2022-12-20T13:04:30;99903.47;;;7.40;100.00
66560;BME280;53413;49.878;8.142;2022-12-20T13:09:52;99902.78;;;7.34;100.00
66560;BME280;53413;49.878;8.142;2022-12-20T13:17:57;99919.09;;;7.09;100.00
66560;BME280;53413;49.878;8.142;2022-12-20T13:20:28;99918.53;;;6.96;100.00
66560;BME280;53413;49.878;8.142;2022-12-20T13:25:48;99911.59;;;6.59;100.00
66560;BME280;53413;49.878;8.142;2022-12-20T13:30:42;99920.06;;;6.31;100.00
66560;BME280;53413;49.878;8.142;2022-12-20T13:33:23;99928.66;;;6.33;100.00
66560;BME280;53413;49.878;8.142;2022-12-20T13:38:56;99931.09;;;6.41;100.00
66560;BME280;53413;49.878;8.142;2022-12-20T13:43:48;99925.38;;;6.64;100.00
66560;BME280;53413;49.878;8.142;2022-12-20T13:46:26;99916.28;;;6.81;100.00
66560;BME280;53413;49.878;8.142;2022-12-20T13:49:04;99919.47;;;6.92;100.00
66560;BME280;53413;49.878;8.142;2022-12-20T13:51:32;99921.28;;;6.90;100.00
66560;BME280;53413;49.878;8.142;2022-12-20T13:54:03;99916.22;;;6.84;100.00
66560;BME280;53413;49.878;8.142;2022-12-20T13:56:41;99891.22;;;6.76;100.00
66560;BME280;53413;49.878;8.142;2022-12-20T13:59:32;99881.84;;;6.69;100.00
66560;BME280;53413;49.878;8.142;2022-12-20T14:02:00;99881.16;;;6.61;100.00
66560;BME280;53413;49.878;8.142;2022-12-20T14:04:40;99880.50;;;6.53;100.00
66560;BME280;53413;49.878;8.142;2022-12-20T14:07:08;99869.13;;;6.19;100.00
66560;BME280;53413;49.878;8.142;2022-12-20T14:09:37;99871.22;;;6.01;100.00
66560;BME280;53413;49.878;8.142;2022-12-20T14:12:08;99869.56;;;5.96;100.00
66560;BME280;53413;49.878;8.142;2022-12-20T14:14:43;99868.84;;;5.91;100.00
66560;BME280;53413;49.878;8.142;2022-12-20T14:22:30;99893.09;;;5.91;100.00
66560;BME280;53413;49.878;8.142;2022-12-20T14:24:56;99887.78;;;5.97;100.00
66560;BME280;53413;49.878;8.142;2022-12-20T14:27:21;99889.38;;;6.06;100.00
66560;BME280;53413;49.878;8.142;2022-12-20T14:29:47;99882.34;;;6.08;100.00
66560;BME280;53413;49.878;8.142;2022-12-20T14:32:19;99876.38;;;6.05;100.00
66560;BME280;53413;49.878;8.142;2022-12-20T14:34:45;99879.84;;;6.04;100.00
66560;BME280;53413;49.878;8.142;2022-12-20T14:37:31;99876.34;;;6.06;100.00
66560;BME280;53413;49.878;8.142;2022-12-20T14:40:02;99863.34;;;6.06;100.00
66560;BME280;53413;49.878;8.142;2022-12-20T14:42:36;99852.00;;;6.09;100.00
66560;BME280;53413;49.878;8.142;2022-12-20T14:45:16;99858.88;;;6.11;100.00
66560;BME280;53413;49.878;8.142;2022-12-20T14:48:03;99857.31;;;6.04;100.00
66560;BME280;53413;49.878;8.142;2022-12-20T14:50:35;99862.66;;;5.96;100.00
66560;BME280;53413;49.878;8.142;2022-12-20T14:53:02;99855.88;;;5.89;100.00
66560;BME280;53413;49.878;8.142;2022-12-20T14:55:36;99849.94;;;5.82;100.00
66560;BME280;53413;49.878;8.142;2022-12-20T14:58:31;99860.72;;;5.64;100.00
66560;BME280;53413;49.878;8.142;2022-12-20T15:01:00;99858.16;;;5.62;100.00
66560;BME280;53413;49.878;8.142;2022-12-20T15:03:27;99858.06;;;5.65;100.00
66560;BME280;53413;49.878;8.142;2022-12-20T15:05:56;99863.38;;;5.62;100.00
66560;BME280;53413;49.878;8.142;2022-12-20T15:08:25;99862.63;;;5.55;100.00
66560;BME280;53413;49.878;8.142;2022-12-20T15:13:37;99849.03;;;5.41;100.00
66560;BME280;53413;49.878;8.142;2022-12-20T15:18:49;99848.50;;;5.25;100.00
66560;BME280;53413;49.878;8.142;2022-12-20T15:21:20;99845.09;;;5.20;100.00
66560;BME280;53413;49.878;8.142;2022-12-20T15:23:50;99836.47;;;5.19;100.00
66560;BME280;53413;49.878;8.142;2022-12-20T15:26:18;99845.19;;;5.17;100.00
66560;BME280;53413;49.878;8.142;2022-12-20T15:28:44;99858.97;;;5.19;100.00
66560;BME280;53413;49.878;8.142;2022-12-20T15:31:15;99852.88;;;5.21;100.00
66560;BME280;53413;49.878;8.142;2022-12-20T15:33:42;99846.00;;;5.19;100.00
66560;BME280;53413;49.878;8.142;2022-12-20T15:36:21;99837.34;;;5.18;100.00
66560;BME280;53413;49.878;8.142;2022-12-20T15:38:48;99831.47;;;5.08;100.00
66560;BME280;53413;49.878;8.142;2022-12-20T15:41:27;99837.63;;;5.03;100.00
66560;BME280;53413;49.878;8.142;2022-12-20T15:43:55;99828.34;;;4.89;100.00
66560;BME280;53413;49.878;8.142;2022-12-20T15:46:21;99826.75;;;4.82;100.00
66560;BME280;53413;49.878;8.142;2022-12-20T15:48:49;99812.22;;;4.72;100.00
66560;BME280;53413;49.878;8.142;2022-12-20T15:51:36;99811.22;;;4.79;100.00
66560;BME280;53413;49.878;8.142;2022-12-20T15:54:09;99810.38;;;4.77;100.00
66560;BME280;53413;49.878;8.142;2022-12-20T15:56:38;99819.06;;;4.77;100.00
66560;BME280;53413;49.878;8.142;2022-12-20T15:59:03;99827.66;;;4.80;100.00
66560;BME280;53413;49.878;8.142;2022-12-20T16:01:37;99833.53;;;4.91;100.00
66560;BME280;53413;49.878;8.142;2022-12-20T16:04:03;99840.28;;;5.00;100.00
66560;BME280;53413;49.878;8.142;2022-12-20T16:06:29;99845.31;;;5.09;100.00
66560;BME280;53413;49.878;8.142;2022-12-20T16:08:55;99847.00;;;5.12;100.00
66560;BME280;53413;49.878;8.142;2022-12-20T16:11:26;99842.69;;;5.11;100.00
66560;BME280;53413;49.878;8.142;2022-12-20T16:13:52;99849.63;;;5.10;100.00
66560;BME280;53413;49.878;8.142;2022-12-20T16:16:23;99844.50;;;5.07;100.00
66560;BME280;53413;49.878;8.142;2022-12-20T16:18:49;99842.72;;;5.09;100.00
66560;BME280;53413;49.878;8.142;2022-12-20T16:21:23;99841.91;;;5.07;100.00
66560;BME280;53413;49.878;8.142;2022-12-20T16:23:49;99845.28;;;5.11;100.00
66560;BME280;53413;49.878;8.142;2022-12-20T16:26:20;99853.22;;;5.03;100.00
66560;BME280;53413;49.878;8.142;2022-12-20T16:28:46;99849.06;;;4.92;100.00
66560;BME280;53413;49.878;8.142;2022-12-20T16:33:47;99845.75;;;4.84;100.00
66560;BME280;53413;49.878;8.142;2022-12-20T16:36:12;99839.88;;;4.74;100.00
66560;BME280;53413;49.878;8.142;2022-12-20T16:38:39;99838.94;;;4.77;100.00
66560;BME280;53413;49.878;8.142;2022-12-20T16:41:16;99834.53;;;4.82;100.00
66560;BME280;53413;49.878;8.142;2022-12-20T16:43:43;99833.75;;;4.77;100.00
66560;BME280;53413;49.878;8.142;2022-12-20T16:46:13;99830.25;;;4.80;100.00
66560;BME280;53413;49.878;8.142;2022-12-20T16:48:39;99825.16;;;4.75;100.00
66560;BME280;53413;49.878;8.142;2022-12-20T16:53:52;99819.81;;;4.84;100.00
66560;BME280;53413;49.878;8.142;2022-12-20T16:56:19;99817.97;;;4.89;100.00
66560;BME280;53413;49.878;8.142;2022-12-20T16:58:44;99818.03;;;4.86;100.00
66560;BME280;53413;49.878;8.142;2022-12-20T17:01:14;99824.91;;;4.89;100.00
66560;BME280;53413;49.878;8.142;2022-12-20T17:03:41;99824.09;;;4.85;100.00
66560;BME280;53413;49.878;8.142;2022-12-20T17:06:09;99814.75;;;4.76;100.00
66560;BME280;53413;49.878;8.142;2022-12-20T17:08:34;99819.13;;;4.71;100.00
66560;BME280;53413;49.878;8.142;2022-12-20T17:10:59;99814.03;;;4.68;100.00
66560;BME280;53413;49.878;8.142;2022-12-20T17:13:25;99809.75;;;4.64;100.00
66560;BME280;53413;49.878;8.142;2022-12-20T17:15:50;99811.44;;;4.67;100.00
66560;BME280;53413;49.878;8.142;2022-12-20T17:18:15;99810.59;;;4.65;100.00
66560;BME280;53413;49.878;8.142;2022-12-20T17:20:41;99808.84;;;4.67;100.00
66560;BME280;53413;49.878;8.142;2022-12-20T17:23:08;99801.84;;;4.72;100.00
66560;BME280;53413;49.878;8.142;2022-12-20T17:25:37;99806.16;;;4.71;100.00
66560;BME280;53413;49.878;8.142;2022-12-20T17:28:04;99814.81;;;4.72;100.00
66560;BME280;53413;49.878;8.142;2022-12-20T17:30:30;99811.34;;;4.71;100.00
66560;BME280;53413;49.878;8.142;2022-12-20T17:32:55;99805.19;;;4.77;100.00
66560;BME280;53413;49.878;8.142;2022-12-20T17:37:48;99804.31;;;4.78;100.00
66560;BME280;53413;49.878;8.142;2022-12-20T17:40:16;99809.66;;;4.69;100.00
66560;BME280;53413;49.878;8.142;2022-12-20T17:42:42;99812.44;;;4.59;100.00
66560;BME280;53413;49.878;8.142;2022-12-20T17:45:24;99816.72;;;4.62;100.00
66560;BME280;53413;49.878;8.142;2022-12-20T17:47:49;99821.94;;;4.60;100.00
66560;BME280;53413;49.878;8.142;2022-12-20T17:50:16;99806.56;;;4.46;100.00
66560;BME280;53413;49.878;8.142;2022-12-20T17:52:43;99811.91;;;4.39;100.00
66560;BME280;53413;49.878;8.142;2022-12-20T17:55:27;99804.13;;;4.39;100.00
66560;BME280;53413;49.878;8.142;2022-12-20T17:57:53;99799.91;;;4.31;100.00
66560;BME280;53413;49.878;8.142;2022-12-20T18:00:30;99803.31;;;4.35;100.00
66560;BME280;53413;49.878;8.142;2022-12-20T18:02:56;99797.16;;;4.42;100.00
66560;BME280;53413;49.878;8.142;2022-12-20T18:05:23;99795.22;;;4.54;100.00
66560;BME280;53413;49.878;8.142;2022-12-20T18:07:54;99791.63;;;4.62;100.00
66560;BME280;53413;49.878;8.142;2022-12-20T18:10:21;99793.50;;;4.53;100.00
66560;BME280;53413;49.878;8.142;2022-12-20T18:12:47;99794.34;;;4.53;100.00
66560;BME280;53413;49.878;8.142;2022-12-20T18:15:13;99791.66;;;4.59;100.00
66560;BME280;53413;49.878;8.142;2022-12-20T18:17:39;99796.06;;;4.54;100.00
66560;BME280;53413;49.878;8.142;2022-12-20T18:20:06;99791.75;;;4.53;100.00
66560;BME280;53413;49.878;8.142;2022-12-20T18:22:33;99778.78;;;4.55;100.00
66560;BME280;53413;49.878;8.142;2022-12-20T18:24:59;99784.94;;;4.49;100.00
66560;BME280;53413;49.878;8.142;2022-12-20T18:27:25;99779.00;;;4.41;100.00
66560;BME280;53413;49.878;8.142;2022-12-20T18:29:50;99783.41;;;4.36;100.00
66560;BME280;53413;49.878;8.142;2022-12-20T18:32:15;99790.22;;;4.43;100.00
66560;BME280;53413;49.878;8.142;2022-12-20T18:34:40;99786.66;;;4.50;100.00
66560;BME280;53413;49.878;8.142;2022-12-20T18:37:07;99779.75;;;4.47;100.00
66560;BME280;53413;49.878;8.142;2022-12-20T18:39:34;99779.00;;;4.41;100.00
66560;BME280;53413;49.878;8.142;2022-12-20T18:41:59;99776.53;;;4.35;100.00
66560;BME280;53413;49.878;8.142;2022-12-20T18:44:25;99777.44;;;4.32;100.00
66560;BME280;53413;49.878;8.142;2022-12-20T18:46:50;99774.00;;;4.30;100.00
66560;BME280;53413;49.878;8.142;2022-12-20T18:49:15;99783.63;;;4.23;100.00